Flight Track Log - Related Links

Times and Time Zones

All times are in EDT time to prevent confusion due to time zone crossing. See the AAL2137 flight status page for this flight to view local times or setup timezone preferences in your user account.

Time Position Orientation Groundspeed Altitude Reporting Facility
EDT Latitude Longitude Course Direction KTS MPH feet Rate Location/Type
Thu 06:53:38 PM 32.9220 -97.0290 North 161 185 2,000  Level FlightAware ADS-B
Thu 06:54:08 PM 32.9470 -97.0240 10° North 208 239 2,800 2,291 Climbing FlightAware ADS-B
Thu 06:54:33 PM 32.9730 -97.0140 18° North 229 264 4,100 3,382 Climbing FlightAware ADS-B
Thu 06:55:03 PM 33.0020 -97.0000 22° Northeast 238 274 5,900 3,333 Climbing FlightAware ADS-B
Thu 06:55:18 PM 33.0140 -96.9820 52° Northeast 263 303 6,600 2,400 Climbing FlightAware ADS-B
Thu 06:55:33 PM 33.0180 -96.9620 77° East 279 321 7,100 2,400 Climbing FlightAware ADS-B
Thu 06:55:58 PM 33.0130 -96.9190 98° East 311 358 8,200 2,850 Climbing FlightAware ADS-B
Thu 06:56:13 PM 33.0070 -96.8930 105° East 318 366 9,000 2,267 Climbing FlightAware ADS-B
Thu 06:56:43 PM 32.9860 -96.8450 118° Southeast 324 373 9,900 1,091 Climbing FlightAware ADS-B
Thu 06:57:08 PM 32.9660 -96.8090 124° Southeast 341 392 10,000 600 Climbing FlightAware ADS-B
Thu 06:57:23 PM 32.9440 -96.7940 150° Southeast 333 383 10,300 1,200 Climbing FlightAware ADS-B
Thu 06:57:38 PM 32.9230 -96.7900 171° South 331 381 10,600 3,000 Climbing FlightAware ADS-B
Thu 06:58:13 PM 32.8710 -96.7930 183° South 322 371 12,800 3,388 Climbing FlightAware ADS-B
Thu 06:59:03 PM 32.7960 -96.7920 179° South 326 375 15,400 2,867 Climbing FlightAware ADS-B
Thu 06:59:43 PM 32.7320 -96.7930 181° South 339 390 17,100 2,471 Climbing FlightAware ADS-B
Thu 07:00:28 PM 32.6620 -96.7970 183° South 347 399 18,900 2,400 Climbing FlightAware ADS-B
Thu 07:01:08 PM 32.5980 -96.8000 182° South 354 407 20,500 2,480 Climbing FlightAware ADS-B
Thu 07:01:43 PM 32.5357 -96.8033 183° South 358 412 22,000 2,384 Climbing FlightAware ADS-B
Thu 07:02:21 PM 32.4720 -96.8064 182° South 363 418 23,400 2,026 Climbing FlightAware ADS-B
Thu 07:03:00 PM 32.4050 -96.8097 182° South 370 426 24,600 1,865 Climbing FlightAware ADS-B
Thu 07:03:35 PM 32.3446 -96.8126 182° South 376 433 25,700 1,714 Climbing FlightAware ADS-B
Thu 07:04:03 PM 32.2962 -96.8127 180° South 388 447 26,400 1,750 Climbing FlightAware ADS-B
Thu 07:04:23 PM 32.2593 -96.8054 171° South 401 461 27,100 2,000 Climbing FlightAware ADS-B
Thu 07:05:18 PM 32.1670 -96.7710 162° South 398 458 28,900 1,808 Climbing FlightAware ADS-B
Thu 07:05:36 PM 32.1317 -96.7574 162° South 403 464 29,300 1,322 Climbing FlightAware ADS-B
Thu 07:06:17 PM 32.0584 -96.7297 162° South 406 467 30,200 1,297 Climbing FlightAware ADS-B
Thu 07:06:50 PM 31.9983 -96.7065 162° South 413 475 30,900 1,263 Climbing FlightAware ADS-B
Thu 07:06:55 PM 31.9896 -96.7032 162° South 413 475 31,000 1,200 Climbing FlightAware ADS-B
Thu 07:07:25 PM 31.9346 -96.6822 162° South 416 479 31,600 1,077 Climbing FlightAware ADS-B
Thu 07:07:34 PM 31.9184 -96.6760 162° South 417 480 31,700 1,000 Climbing FlightAware ADS-B
Thu 07:07:55 PM 31.8777 -96.6605 162° South 424 488 32,100 1,000 Climbing FlightAware ADS-B
Thu 07:08:04 PM 31.8611 -96.6541 162° South 428 493 32,200 774 Climbing FlightAware ADS-B
Thu 07:08:26 PM 31.8192 -96.6370 161° South 435 501 32,500 774 Climbing FlightAware ADS-B
Thu 07:08:35 PM 31.8030 -96.6302 160° South 438 504 32,600 727 Climbing FlightAware ADS-B
Thu 07:08:59 PM 31.7571 -96.6110 160° South 443 510 32,900 800 Climbing FlightAware ADS-B
Thu 07:09:05 PM 31.7447 -96.6059 161° South 443 510 33,000 938 Climbing FlightAware ADS-B
Thu 07:09:31 PM 31.6938 -96.5849 161° South 447 514 33,400 968 Climbing FlightAware ADS-B
Thu 07:09:36 PM 31.6853 -96.5814 161° South 447 514 33,500 968 Climbing FlightAware ADS-B
Thu 07:10:02 PM 31.6340 -96.5604 161° South 450 518 33,900 1,000 Climbing FlightAware ADS-B
Thu 07:10:06 PM 31.6263 -96.5573 161° South 450 518 34,000 1,200 Climbing FlightAware ADS-B
Thu 07:10:32 PM 31.5741 -96.5360 161° South 451 519 34,500 1,200 Climbing FlightAware ADS-B
Thu 07:10:36 PM 31.5660 -96.5328 161° South 450 518 34,600 1,742 Climbing FlightAware ADS-B
Thu 07:11:03 PM 31.5139 -96.5117 161° South 441 507 35,400 1,800 Climbing FlightAware ADS-B
Thu 07:11:06 PM 31.5076 -96.5091 161° South 440 506 35,500 1,548 Climbing FlightAware ADS-B
Thu 07:11:34 PM 31.4553 -96.4894 162° South 430 495 36,200 1,600 Climbing FlightAware ADS-B
Thu 07:11:36 PM 31.4503 -96.4876 163° South 429 494 36,300 1,400 Climbing FlightAware ADS-B
Thu 07:12:04 PM 31.3980 -96.4687 163° South 424 488 36,900 1,400 Climbing FlightAware ADS-B
Thu 07:12:06 PM 31.3934 -96.4671 163° South 424 488 37,000 182 Climbing FlightAware ADS-B
Thu 07:12:37 PM 31.3367 -96.4463 163° South 427 491 37,000  Level FlightAware ADS-B
Thu 07:13:07 PM 31.2795 -96.4251 162° South 430 495 37,000  Level FlightAware ADS-B
Thu 07:13:37 PM 31.2218 -96.4034 162° South 433 498 37,000  Level FlightAware ADS-B
Thu 07:13:38 PM 31.2201 -96.4028 163° South 433 498 37,000  Level FlightAware ADS-B
Thu 07:14:07 PM 31.1643 -96.3817 162° South 436 502 37,000  Level FlightAware ADS-B
Thu 07:14:08 PM 31.1620 -96.3809 163° South 436 502 37,000  Level FlightAware ADS-B
Thu 07:14:37 PM 31.1063 -96.3599 162° South 439 505 37,000  Level FlightAware ADS-B
Thu 07:14:39 PM 31.1037 -96.3589 162° South 439 505 37,000  Level FlightAware ADS-B
Thu 07:15:08 PM 31.0467 -96.3376 162° South 441 507 37,000  Level FlightAware ADS-B
Thu 07:15:09 PM 31.0438 -96.3365 162° South 441 507 37,000  Level FlightAware ADS-B
Thu 07:15:38 PM 30.9875 -96.3156 162° South 443 510 37,000  Level FlightAware ADS-B
Thu 07:15:40 PM 30.9836 -96.3142 163° South 443 510 37,000  Level FlightAware ADS-B
Thu 07:16:09 PM 30.9281 -96.2936 162° South 444 511 37,000  Level FlightAware ADS-B
Thu 07:16:11 PM 30.9224 -96.2915 162° South 444 511 37,000  Level FlightAware ADS-B
Thu 07:16:39 PM 30.8684 -96.2714 162° South 445 512 37,000  Level FlightAware ADS-B
Thu 07:16:42 PM 30.8626 -96.2693 163° South 445 512 37,000  Level FlightAware ADS-B
Thu 07:17:09 PM 30.8089 -96.2495 162° South 445 512 37,000  Level FlightAware ADS-B
Thu 07:17:12 PM 30.8036 -96.2476 163° South 445 512 37,000  Level FlightAware ADS-B
Thu 07:17:39 PM 30.7496 -96.2277 162° South 446 513 37,000  Level FlightAware ADS-B
Thu 07:17:42 PM 30.7443 -96.2256 161° South 446 513 37,000  Level FlightAware ADS-B
Thu 07:18:10 PM 30.6889 -96.2051 162° South 447 514 37,000  Level FlightAware ADS-B
Thu 07:18:12 PM 30.6848 -96.2037 164° South 447 514 37,000  Level FlightAware ADS-B
Thu 07:18:40 PM 30.6290 -96.1831 162° South 447 514 37,000  Level FlightAware ADS-B
Thu 07:18:43 PM 30.6250 -96.1816 162° South 447 514 37,000  Level FlightAware ADS-B
Thu 07:19:11 PM 30.5692 -96.1612 163° South 447 514 37,000  Level FlightAware ADS-B
Thu 07:19:13 PM 30.5647 -96.1595 162° South 447 514 37,000  Level FlightAware ADS-B
Thu 07:19:41 PM 30.5099 -96.1394 162° South 446 513 37,000  Level FlightAware ADS-B
Thu 07:19:44 PM 30.5046 -96.1375 163° South 446 513 37,000  Level FlightAware ADS-B
Thu 07:20:11 PM 30.4504 -96.1175 162° South 446 513 37,000  Level FlightAware ADS-B
Thu 07:20:14 PM 30.4456 -96.1157 162° South 446 513 37,000  Level FlightAware ADS-B
Thu 07:20:41 PM 30.3910 -96.0958 163° South 446 513 37,000  Level FlightAware ADS-B
Thu 07:20:44 PM 30.3861 -96.0940 162° South 446 513 37,000  Level FlightAware ADS-B
Thu 07:21:07 PM 30.3398 -96.0770 162° South 446 513 37,000  Level FlightAware ADS-B
Thu 07:21:08 PM 30.3380 -96.0763 161° South 447 514 37,000  Level FlightAware ADS-B
Thu 07:21:17 PM 30.3215 -96.0687 158° South 454 522 37,000  Level FlightAware ADS-B
Thu 07:21:18 PM 30.3186 -96.0672 156° South 455 524 37,000  Level FlightAware ADS-B
Thu 07:21:26 PM 30.3037 -96.0587 154° Southeast 462 532 37,000  Level FlightAware ADS-B
Thu 07:21:29 PM 30.2988 -96.0556 151° Southeast 464 534 37,000  Level FlightAware ADS-B
Thu 07:21:37 PM 30.2841 -96.0451 148° Southeast 473 544 37,000  Level FlightAware ADS-B
Thu 07:21:40 PM 30.2784 -96.0405 145° Southeast 475 547 37,000  Level FlightAware ADS-B
Thu 07:21:47 PM 30.2651 -96.0288 143° Southeast 483 556 37,000  Level FlightAware ADS-B
Thu 07:21:49 PM 30.2627 -96.0264 139° Southeast 484 557 37,000  Level FlightAware ADS-B
Thu 07:21:56 PM 30.2512 -96.0146 138° Southeast 491 565 37,000  Level FlightAware ADS-B
Thu 07:21:58 PM 30.2471 -96.0100 136° Southeast 493 567 37,000  Level FlightAware ADS-B
Thu 07:22:26 PM 30.2026 -95.9571 134° Southeast 496 571 37,000  Level FlightAware ADS-B
Thu 07:22:28 PM 30.1986 -95.9524 135° Southeast 496 571 37,000  Level FlightAware ADS-B
Thu 07:22:56 PM 30.1543 -95.8995 134° Southeast 496 571 37,000  Level FlightAware ADS-B
Thu 07:23:00 PM 30.1488 -95.8931 135° Southeast 496 571 37,000  Level FlightAware ADS-B
Thu 07:23:27 PM 30.1051 -95.8412 134° Southeast 494 568 37,000  Level FlightAware ADS-B
Thu 07:23:30 PM 30.1002 -95.8354 134° Southeast 494 568 37,000  Level FlightAware ADS-B
Thu 07:23:57 PM 30.0571 -95.7844 134° Southeast 494 568 37,000  Level FlightAware ADS-B
Thu 07:24:00 PM 30.0522 -95.7786 134° Southeast 494 568 37,000  Level FlightAware ADS-B
Thu 07:24:27 PM 30.0088 -95.7275 134° Southeast 494 568 37,000  Level FlightAware ADS-B
Thu 07:24:31 PM 30.0021 -95.7196 134° Southeast 494 568 37,000  Level FlightAware ADS-B
Thu 07:24:58 PM 29.9589 -95.6689 135° Southeast 493 567 37,000  Level FlightAware ADS-B
Thu 07:25:02 PM 29.9525 -95.6614 135° Southeast 493 567 37,000  Level FlightAware ADS-B
Thu 07:25:33 PM 29.9032 -95.6037 135° Southeast 494 568 37,000  Level FlightAware ADS-B
Thu 07:25:35 PM 29.9008 -95.6009 135° Southeast 494 568 37,000  Level FlightAware ADS-B
Thu 07:26:03 PM 29.8549 -95.5473 135° Southeast 494 568 37,000  Level FlightAware ADS-B
Thu 07:26:08 PM 29.8471 -95.5382 135° Southeast 495 570 37,000  Level FlightAware ADS-B
Thu 07:26:38 PM 29.7995 -95.4827 135° Southeast 495 570 37,000  Level FlightAware ADS-B
Thu 07:26:40 PM 29.7963 -95.4790 135° Southeast 495 570 37,000  Level FlightAware ADS-B
Thu 07:27:08 PM 29.7510 -95.4260 135° Southeast 494 568 37,000  Level FlightAware ADS-B
Thu 07:27:18 PM 29.7353 -95.4076 134° Southeast 494 568 37,000  Level FlightAware ADS-B
Thu 07:27:38 PM 29.7028 -95.3696 135° Southeast 494 568 37,000  Level FlightAware ADS-B
Thu 07:27:48 PM 29.6871 -95.3513 135° Southeast 494 568 37,000  Level FlightAware ADS-B
Thu 07:28:09 PM 29.6542 -95.3129 135° Southeast 494 568 37,000  Level FlightAware ADS-B
Thu 07:28:19 PM 29.6379 -95.2938 134° Southeast 495 570 37,000  Level FlightAware ADS-B
Thu 07:28:41 PM 29.6025 -95.2527 135° Southeast 495 570 37,000  Level FlightAware ADS-B
Thu 07:28:49 PM 29.5895 -95.2376 135° Southeast 495 570 37,000  Level FlightAware ADS-B
Thu 07:29:11 PM 29.5539 -95.1963 135° Southeast 496 571 37,000  Level FlightAware ADS-B
Thu 07:29:20 PM 29.5392 -95.1793 135° Southeast 496 571 37,000  Level FlightAware ADS-B
Thu 07:29:42 PM 29.5042 -95.1387 135° Southeast 496 571 37,000  Level FlightAware ADS-B
Thu 07:29:51 PM 29.4893 -95.1215 135° Southeast 496 571 37,000  Level FlightAware ADS-B
Thu 07:30:12 PM 29.4552 -95.0823 135° Southeast 497 572 37,000  Level FlightAware ADS-B
Thu 07:30:42 PM 29.4061 -95.0256 135° Southeast 499 574 37,000  Level FlightAware ADS-B
Thu 07:30:48 PM 29.3963 -95.0143 135° Southeast 499 574 37,000  Level FlightAware ADS-B
Thu 07:31:12 PM 29.3571 -94.9691 135° Southeast 500 575 37,000  Level FlightAware ADS-B
Thu 07:31:20 PM 29.3449 -94.9549 135° Southeast 500 575 37,000  Level FlightAware ADS-B
Thu 07:31:43 PM 29.3077 -94.9121 135° Southeast 501 577 37,000  Level FlightAware ADS-B
Thu 07:31:50 PM 29.2956 -94.8986 136° Southeast 501 577 37,000  Level FlightAware ADS-B
Thu 07:32:02 PM 29.2755 -94.8785 139° Southeast 495 570 37,000  Level FlightAware ADS-B
Thu 07:32:03 PM 29.2727 -94.8758 140° Southeast 495 570 37,000  Level FlightAware ADS-B
Thu 07:32:12 PM 29.2576 -94.8625 142° Southeast 490 564 37,000  Level FlightAware ADS-B
Thu 07:32:14 PM 29.2527 -94.8584 144° Southeast 489 563 37,000  Level FlightAware ADS-B
Thu 07:32:17 PM 29.2472 -94.8539 144° Southeast 488 562 37,000  Level FlightAware ADS-B
Thu 07:32:22 PM 29.2380 -94.8469 146° Southeast 485 558 37,000  Level FlightAware ADS-B
Thu 07:32:48 PM 29.1893 -94.8132 149° Southeast 482 555 37,000  Level FlightAware ADS-B
Thu 07:32:52 PM 29.1807 -94.8074 150° Southeast 482 555 37,000  Level FlightAware ADS-B
Thu 07:33:18 PM 29.1307 -94.7735 149° Southeast 482 555 37,000  Level FlightAware ADS-B
Thu 07:33:41 PM 29.0872 -94.7441 149° Southeast 482 555 37,000  Level FlightAware ADS-B
Thu 07:33:48 PM 29.0730 -94.7345 149° Southeast 483 556 37,000  Level FlightAware ADS-B
Thu 07:34:19 PM 29.0146 -94.6949 149° Southeast 484 557 37,000  Level FlightAware ADS-B
Thu 07:34:35 PM 28.9836 -94.6739 149° Southeast 483 556 37,000  Level FlightAware ADS-B
Thu 07:34:49 PM 28.9559 -94.6551 149° Southeast 483 556 37,000  Level FlightAware ADS-B
Thu 07:35:20 PM 28.8973 -94.6155 149° Southeast 482 555 37,000  Level FlightAware ADS-B
Thu 07:35:50 PM 28.8392 -94.5764 149° Southeast 482 555 37,000  Level FlightAware ADS-B
Thu 07:36:20 PM 28.7808 -94.5372 150° Southeast 483 556 37,000  Level FlightAware ADS-B
Thu 07:36:50 PM 28.7229 -94.4984 150° Southeast 482 555 37,000  Level FlightAware ADS-B
Thu 07:37:21 PM 28.6639 -94.4587 149° Southeast 482 555 37,000  Level FlightAware ADS-B
Thu 07:37:57 PM 28.5942 -94.4119 149° Southeast 481 554 37,000  Level FlightAware ADS-B
Thu 07:38:30 PM 28.5320 -94.3702 149° Southeast 480 552 37,000  Level FlightAware ADS-B
Thu 07:39:01 PM 28.4726 -94.3305 150° Southeast 481 554 37,000  Level FlightAware ADS-B
Thu 07:39:32 PM 28.4122 -94.2902 150° Southeast 480 552 37,000  Level FlightAware ADS-B
Thu 07:40:04 PM 28.3525 -94.2502 149° Southeast 481 554 37,000  Level FlightAware ADS-B
Thu 07:40:39 PM 28.2851 -94.2054 150° Southeast 481 554 37,000  Level FlightAware ADS-B
Thu 07:41:13 PM 28.2191 -94.1616 150° Southeast 481 554 37,000  Level FlightAware ADS-B
Thu 07:41:48 PM 28.1532 -94.1126 147° Southeast 490 564 37,000  Level FlightAware ADS-B
Thu 07:42:53 PM 28.0560 -94.0400 147° Southeast 487 560 37,000  Level FlightAware ADS-B
Thu 07:43:00 PM 28.0269 -93.9924 125° Southeast 498 573 37,000  Level FlightAware ADS-B
Thu 07:43:37 PM 27.9604 -93.9289 140° Southeast 498 573 37,000  Level FlightAware ADS-B
Thu 07:44:08 PM 27.9053 -93.8765 140° Southeast 499 574 37,000  Level FlightAware ADS-B
Thu 07:44:38 PM 27.8524 -93.8263 140° Southeast 499 574 37,000  Level FlightAware ADS-B
Thu 07:46:27 PM 27.6611 -93.6452 140° Southeast 497 572 37,000  Level FlightAware ADS-B
Thu 07:49:57 PM 27.2911 -93.2976 140° Southeast 37,000  Level FlightAware ADS-B
Thu 07:50:05 PM 27.2769 -93.2843 140° Southeast 498 573 37,000  Level FlightAware ADS-B
Thu 07:56:22 PM 26.5861 -92.6984 143° Southeast 492 566 37,000  Level FlightAware ADS-B
Thu 08:00:00 PM 26.2025 -92.4435 149° Southeast  Level FlightAware Approximate
Thu 08:01:00 PM 26.0968 -92.3736 149° Southeast  Level FlightAware Approximate
Thu 08:02:00 PM 25.9911 -92.3038 149° Southeast  Level FlightAware Approximate
Thu 08:03:00 PM 25.8853 -92.2342 149° Southeast  Level FlightAware Approximate
Thu 08:04:00 PM 25.7797 -92.1647 149° Southeast  Level FlightAware Approximate
Thu 08:05:00 PM 25.6740 -92.0952 149° Southeast  Level FlightAware Approximate
Thu 08:06:00 PM 25.5682 -92.0258 149° Southeast  Level FlightAware Approximate
Thu 08:07:00 PM 25.4624 -91.9566 149° Southeast  Level FlightAware Approximate
Thu 08:08:00 PM 25.3565 -91.8875 149° Southeast  Level FlightAware Approximate
Thu 08:09:00 PM 25.2506 -91.8185 149° Southeast  Level FlightAware Approximate
Thu 08:10:00 PM 25.1447 -91.7496 150° Southeast  Level FlightAware Approximate
Thu 08:11:00 PM 25.0388 -91.6809 150° Southeast  Level FlightAware Approximate
Thu 08:12:00 PM 24.9328 -91.6122 150° Southeast  Level FlightAware Approximate
Thu 08:13:00 PM 24.8268 -91.5437 150° Southeast  Level FlightAware Approximate
Thu 08:14:00 PM 24.7208 -91.4753 150° Southeast  Level FlightAware Approximate
Thu 08:15:00 PM 24.6147 -91.4070 150° Southeast  Level FlightAware Approximate
Thu 08:16:00 PM 24.5086 -91.3389 150° Southeast  Level FlightAware Approximate
Thu 08:17:00 PM 24.3973 -91.2819 155° Southeast  Level FlightAware Approximate
Thu 08:18:00 PM 24.2854 -91.2260 156° South  Level FlightAware Approximate
Thu 08:19:00 PM 24.1732 -91.1712 156° South  Level FlightAware Approximate
Thu 08:20:00 PM 24.0608 -91.1167 156° South  Level FlightAware Approximate
Thu 08:21:00 PM 23.9485 -91.0622 156° South  Level FlightAware Approximate
Thu 08:22:00 PM 23.8361 -91.0079 156° South  Level FlightAware Approximate
Thu 08:23:00 PM 23.7237 -90.9536 156° South  Level FlightAware Approximate
Thu 08:24:00 PM 23.6112 -90.8994 156° South  Level FlightAware Approximate
Thu 08:25:00 PM 23.4988 -90.8454 156° South  Level FlightAware Approximate
Thu 08:26:00 PM 23.3864 -90.7914 156° South  Level FlightAware Approximate
Thu 08:27:00 PM 23.2738 -90.7377 157° South  Level FlightAware Approximate
Thu 08:28:00 PM 23.1610 -90.6846 157° South  Level FlightAware Approximate
Thu 08:29:00 PM 23.0482 -90.6316 157° South  Level FlightAware Approximate
Thu 08:30:00 PM 22.9354 -90.5788 157° South  Level FlightAware Approximate
Thu 08:31:00 PM 22.8225 -90.5260 157° South  Level FlightAware Approximate
Thu 08:32:00 PM 22.7097 -90.4733 157° South  Level FlightAware Approximate
Thu 08:33:00 PM 22.5968 -90.4206 157° South  Level FlightAware Approximate
Thu 08:34:00 PM 22.4839 -90.3680 157° South  Level FlightAware Approximate
Thu 08:35:00 PM 22.3711 -90.3153 157° South  Level FlightAware Approximate
Thu 08:36:00 PM 22.2583 -90.2627 157° South  Level FlightAware Approximate
Thu 08:37:00 PM 22.1454 -90.2102 157° South  Level FlightAware Approximate
Thu 08:38:00 PM 22.0325 -90.1578 157° South  Level FlightAware Approximate
Thu 08:39:00 PM 21.9196 -90.1054 157° South  Level FlightAware Approximate
Thu 08:40:00 PM 21.8067 -90.0532 157° South  Level FlightAware Approximate
Thu 08:41:00 PM 21.6938 -90.0010 157° South  Level FlightAware Approximate
Thu 08:42:00 PM 21.5809 -89.9489 157° South  Level FlightAware Approximate
Thu 08:43:00 PM 21.4681 -89.8966 157° South  Level FlightAware Approximate
Thu 08:44:00 PM 21.3552 -89.8444 157° South  Level FlightAware Approximate
Thu 08:45:00 PM 21.2423 -89.7922 157° South  Level FlightAware Approximate
Thu 08:46:00 PM 21.1294 -89.7402 157° South  Level FlightAware Approximate
Thu 08:47:00 PM 21.0165 -89.6882 157° South  Level FlightAware Approximate
Thu 08:48:00 PM 20.9011 -89.6474 176° South  Level FlightAware Approximate
Thu 08:49:00 PM 20.7785 -89.6377 176° South  Level FlightAware Approximate
Thu 08:50:00 PM 20.6560 -89.6280 176° South  Level FlightAware Approximate
Thu 08:51:00 PM 20.5334 -89.6184 176° South  Level FlightAware Approximate
Thu 08:52:00 PM 20.4109 -89.6087 176° South  Level FlightAware Approximate
Thu 08:53:00 PM 20.2883 -89.5991 176° South  Level FlightAware Approximate
Thu 08:54:00 PM 20.1658 -89.5894 176° South  Level FlightAware Approximate
Thu 08:55:00 PM 20.0432 -89.5798 176° South  Level FlightAware Approximate
Thu 08:56:00 PM 19.9207 -89.5702 176° South  Level FlightAware Approximate
Thu 08:57:00 PM 19.7981 -89.5607 176° South  Level FlightAware Approximate
Thu 08:58:00 PM 19.6756 -89.5511 176° South  Level FlightAware Approximate
Thu 08:59:00 PM 19.5530 -89.5415 176° South  Level FlightAware Approximate
Thu 09:00:00 PM 19.4305 -89.5320 176° South  Level FlightAware Approximate
Thu 09:01:00 PM 19.3079 -89.5225 176° South  Level FlightAware Approximate
Thu 09:02:00 PM 19.1853 -89.5144 177° South  Level FlightAware Approximate
Thu 09:03:00 PM 19.0625 -89.5087 177° South  Level FlightAware Approximate
Thu 09:04:00 PM 18.9398 -89.5029 177° South  Level FlightAware Approximate
Thu 09:05:00 PM 18.8170 -89.4972 177° South  Level FlightAware Approximate
Thu 09:06:00 PM 18.6942 -89.4915 177° South  Level FlightAware Approximate
Thu 09:07:00 PM 18.5715 -89.4857 177° South  Level FlightAware Approximate
Thu 09:08:00 PM 18.4487 -89.4800 177° South  Level FlightAware Approximate
Thu 09:09:00 PM 18.3260 -89.4743 177° South  Level FlightAware Approximate
Thu 09:10:00 PM 18.2032 -89.4686 177° South  Level FlightAware Approximate
Thu 09:11:00 PM 18.0804 -89.4630 177° South  Level FlightAware Approximate
Thu 09:12:00 PM 17.9577 -89.4573 177° South  Level FlightAware Approximate
Thu 09:13:00 PM 17.8349 -89.4516 177° South  Level FlightAware Approximate
Thu 09:14:00 PM 17.7125 -89.4403 174° South  Level FlightAware Approximate
Thu 09:15:00 PM 17.5902 -89.4282 175° South  Level FlightAware Approximate
Thu 09:16:00 PM 17.4677 -89.4178 175° South  Level FlightAware Approximate
Thu 09:17:00 PM 17.3452 -89.4073 175° South  Level FlightAware Approximate
Thu 09:18:00 PM 17.2227 -89.3969 175° South  Level FlightAware Approximate
Thu 09:19:00 PM 17.1003 -89.3865 175° South  Level FlightAware Approximate
Thu 09:20:00 PM 16.9778 -89.3761 175° South  Level FlightAware Approximate
Thu 09:21:00 PM 16.8553 -89.3667 180° South  Level FlightAware Approximate
Thu 09:22:00 PM 16.7430 -89.4047 213° Southwest  Level FlightAware Approximate
Thu 09:23:00 PM 16.6380 -89.4712 210° Southwest  Level FlightAware Approximate
Thu 09:24:00 PM 16.5318 -89.5358 210° Southwest  Level FlightAware Approximate
Thu 09:25:00 PM 16.4257 -89.6004 210° Southwest  Level FlightAware Approximate
Thu 09:26:00 PM 16.3195 -89.6649 210° Southwest  Level FlightAware Approximate
Thu 09:27:00 PM 16.2109 -89.7244 211° Southwest  Level FlightAware Approximate
Thu 09:28:00 PM 16.1060 -89.7910 214° Southwest  Level FlightAware Approximate
Thu 09:29:00 PM 16.0047 -89.8633 214° Southwest  Level FlightAware Approximate
Thu 09:30:00 PM 15.8985 -89.9276 210° Southwest  Level FlightAware Approximate
Thu 09:31:00 PM 15.7921 -89.9915 210° Southwest  Level FlightAware Approximate
Thu 09:32:00 PM 15.6839 -90.0520 207° Southwest  Level FlightAware Approximate
Thu 09:33:00 PM 15.5746 -90.1103 207° Southwest  Level FlightAware Approximate
Thu 09:34:00 PM 15.4671 -90.1719 213° Southwest  Level FlightAware Approximate
Thu 09:35:00 PM 15.3638 -90.2409 213° Southwest  Level FlightAware Approximate
Thu 09:36:00 PM 15.2597 -90.3085 211° Southwest  Level FlightAware Approximate

Login

Don't have an account? Register now (free) for customized features, flight alerts, and more!